Startpagina
METAR-TAF:

METAR-TAF

Vliegvelden :

Caracas, Venezuela

Aeropuerto Internacional de Maiquetía Simón Bolívar

breedte: 10-36N, lengte: 066-59W, hoogte: 43 m

Actueel weer

Dit bericht is 55 minuten geleden gemaakt, om 12:00 UTC
Weinig wind
Temperatuur 28°C
Vochtigheid 62%
Druk 1013 hPa
Zicht 10 km of meer
Weinig wolken op 1600 ft

METAR: SVMI 261200Z 00000KT 9999 FEW016 28/20 Q1013

Tijdstip: 08:55 (12:55 UTC)

Verwachting

Dit bericht is 2 uur en het 55 minuten geleden gemaakt, om 10:00 UTC
Verwachting geldig van 26 om 12 UTC tot 27 om 12 UTC
Wind kt uit het noorden
Zicht 10 km of meer
geen wolken onder 1500 m en geen cumulonimbus
Wijzigt naar
van 26 om 12 UTC tot 26 om 16 UTC
Wind 8 kt uit het noordoosten
Weinig wolken op 1300 ft

TAF: SVMI 261000Z 2612/2712 00000KT CAVOK TX34/18Z TN25/09Z BECMG 2612/2616 05008KT FEW013

Waarnemingen en weersverwachtingen van meer dan 4000 vliegvelden (METAR en TAF).

De beschikbare stations zijn de gele en rode punten op de kaart.

Ga met uw muis naar het station om de naam te zien.

Klik dan om waarnemingen en weersverwachtingen te zien.

kaart wijzigen: klik op de groene knoppen met een zwart kruis om in te zoomen, op de groene knop met een streepje om uit te zoomen of op de groene pijlen voor aangrenzende kaarten.


METAR-TAF: